createdAt,value
2018-04-15T00:00:41.305Z,50.78
2018-04-15T00:03:09.368Z,50.15
2018-04-15T00:05:37.371Z,50.20
2018-04-15T00:08:05.362Z,50.40
2018-04-15T00:10:33.347Z,50.24
2018-04-15T00:13:01.292Z,50.19
2018-04-15T00:15:29.268Z,50.35
2018-04-15T00:17:57.193Z,50.60
2018-04-15T00:20:25.475Z,50.34
2018-04-15T00:22:53.436Z,50.42
2018-04-15T00:25:21.485Z,50.35
2018-04-15T00:27:49.478Z,50.44
2018-04-15T00:30:17.524Z,51.76
2018-04-15T00:32:45.522Z,51.57
2018-04-15T00:35:13.538Z,52.06
2018-04-15T00:37:41.469Z,51.35
2018-04-15T00:40:09.488Z,53.95
2018-04-15T00:42:37.481Z,56.89
2018-04-15T00:45:05.494Z,53.67
2018-04-15T00:47:33.453Z,52.93
2018-04-15T00:50:01.494Z,54.63
2018-04-15T00:52:29.478Z,56.87
2018-04-15T00:54:57.441Z,53.34
2018-04-15T00:57:25.442Z,54.83
2018-04-15T00:59:53.447Z,53.33
2018-04-15T01:02:21.464Z,56.49
2018-04-15T01:04:49.437Z,58.93
2018-04-15T01:07:17.393Z,56.16
2018-04-15T01:09:45.369Z,58.48
2018-04-15T01:12:13.437Z,57.30
2018-04-15T01:14:41.446Z,58.14
2018-04-15T01:17:09.468Z,56.39
2018-04-15T01:19:37.414Z,55.35
2018-04-15T01:22:05.901Z,54.24
2018-04-15T01:24:33.986Z,56.53
2018-04-15T01:27:02.003Z,54.73
2018-04-15T01:29:30.028Z,54.26
2018-04-15T01:31:58.005Z,53.56
2018-04-15T01:34:26.020Z,53.01
2018-04-15T01:36:54.012Z,52.73
2018-04-15T01:39:21.965Z,53.19
2018-04-15T01:41:50.004Z,52.57
2018-04-15T01:44:17.979Z,52.51
2018-04-15T01:46:45.914Z,52.35
2018-04-15T01:49:13.909Z,52.34
2018-04-15T01:51:41.956Z,52.12
2018-04-15T01:54:09.928Z,51.77
2018-04-15T01:56:37.882Z,51.60
2018-04-15T01:59:05.901Z,52.41
2018-04-15T02:01:33.865Z,52.68
2018-04-15T02:04:01.874Z,52.65
2018-04-15T02:06:29.851Z,52.60
2018-04-15T02:08:57.785Z,52.89
2018-04-15T02:11:25.746Z,53.16
2018-04-15T02:13:53.766Z,52.43
2018-04-15T02:16:21.743Z,52.96
2018-04-15T02:18:49.738Z,52.99
2018-04-15T02:21:17.705Z,53.21
2018-04-15T02:23:45.954Z,53.21
2018-04-15T02:26:13.849Z,52.84
2018-04-15T02:28:41.830Z,52.69
2018-04-15T02:31:09.844Z,53.13
2018-04-15T02:33:37.951Z,52.93
2018-04-15T02:36:05.959Z,52.89
2018-04-15T02:38:33.930Z,54.48
2018-04-15T02:41:01.913Z,54.19
2018-04-15T02:43:30.267Z,53.84
2018-04-15T02:45:58.274Z,53.25
2018-04-15T02:48:26.265Z,53.09
2018-04-15T02:50:54.262Z,52.76
2018-04-15T02:53:22.237Z,53.66
2018-04-15T02:55:50.202Z,55.38
2018-04-15T02:58:18.170Z,57.46
2018-04-15T03:00:46.096Z,59.65
2018-04-15T03:03:14.099Z,58.38
2018-04-15T03:05:42.142Z,56.68
2018-04-15T03:08:10.124Z,55.87
2018-04-15T03:10:38.160Z,55.97
2018-04-15T03:13:06.129Z,54.33
2018-04-15T03:15:34.106Z,55.93
2018-04-15T03:18:02.123Z,55.87
2018-04-15T03:20:30.077Z,55.66
2018-04-15T03:22:58.018Z,56.27
2018-04-15T03:25:26.286Z,55.60
2018-04-15T03:27:54.292Z,57.43
2018-04-15T03:30:22.376Z,56.28
2018-04-15T03:32:50.469Z,56.37
2018-04-15T03:35:18.449Z,55.74
2018-04-15T03:37:46.385Z,55.71
2018-04-15T03:40:14.424Z,54.97
2018-04-15T03:42:42.400Z,55.05
2018-04-15T03:45:10.343Z,55.00
2018-04-15T03:47:38.342Z,54.20
2018-04-15T03:50:06.337Z,54.27
2018-04-15T03:52:34.317Z,54.18
2018-04-15T03:55:02.307Z,54.00
2018-04-15T03:57:30.291Z,53.69
2018-04-15T03:59:58.242Z,53.68
2018-04-15T04:02:26.301Z,55.60
2018-04-15T04:04:54.259Z,55.32
2018-04-15T04:07:22.249Z,55.28
2018-04-15T04:09:50.251Z,56.88
2018-04-15T04:12:18.228Z,57.96
2018-04-15T04:14:46.194Z,57.76
2018-04-15T04:17:14.129Z,58.29
2018-04-15T04:19:53.947Z,60.60
2018-04-15T04:22:34.181Z,58.85
2018-04-15T04:28:11.333Z,63.27
2018-04-15T04:30:39.234Z,62.30
2018-04-15T04:33:07.199Z,62.45
2018-04-15T04:35:35.228Z,60.12
2018-04-15T04:38:03.197Z,60.87
2018-04-15T04:40:31.290Z,57.99
2018-04-15T04:42:59.288Z,56.17
2018-04-15T04:45:27.228Z,56.97
2018-04-15T04:47:55.273Z,57.25
2018-04-15T04:50:23.243Z,56.33
2018-04-15T04:52:51.161Z,58.01
2018-04-15T04:55:19.384Z,56.45
2018-04-15T04:57:47.675Z,56.45
2018-04-15T05:00:15.682Z,55.13
2018-04-15T05:02:43.624Z,57.04
2018-04-15T05:05:11.647Z,55.71
2018-04-15T05:07:39.682Z,58.15
2018-04-15T05:10:07.793Z,59.90
2018-04-15T05:12:35.706Z,60.44
2018-04-15T05:15:03.731Z,58.97
2018-04-15T05:17:31.697Z,57.99
2018-04-15T05:19:59.684Z,58.24
2018-04-15T05:22:27.730Z,55.60
2018-04-15T05:24:55.822Z,56.22
2018-04-15T05:27:23.841Z,56.21
2018-04-15T05:29:52.173Z,54.67
2018-04-15T05:32:20.216Z,53.87
2018-04-15T05:34:48.293Z,52.16
2018-04-15T05:37:16.253Z,53.94
2018-04-15T05:39:44.213Z,54.29
2018-04-15T05:42:12.273Z,53.90
2018-04-15T05:44:40.288Z,53.25
2018-04-15T05:47:08.254Z,53.92
2018-04-15T05:49:36.249Z,55.12
2018-04-15T05:52:04.217Z,55.18
2018-04-15T05:54:32.231Z,55.81
2018-04-15T05:57:00.210Z,56.57
2018-04-15T05:59:28.305Z,56.35
2018-04-15T06:01:56.294Z,54.22
2018-04-15T06:04:24.273Z,53.02
2018-04-15T06:06:52.164Z,52.99
2018-04-15T06:09:20.129Z,52.59
2018-04-15T06:11:48.069Z,53.66
2018-04-15T06:14:16.021Z,52.46
2018-04-15T06:16:44.024Z,54.67
2018-04-15T06:19:11.978Z,53.84
2018-04-15T06:21:40.176Z,54.13
2018-04-15T06:24:08.181Z,52.61
2018-04-15T06:26:36.291Z,51.33
2018-04-15T06:29:04.323Z,50.59
2018-04-15T06:31:32.532Z,51.23
2018-04-15T06:34:00.496Z,49.42
2018-04-15T06:36:28.417Z,50.80
2018-04-15T06:38:56.349Z,51.33
2018-04-15T06:41:24.284Z,49.80
2018-04-15T06:43:52.272Z,48.85
2018-04-15T06:46:20.275Z,46.92
2018-04-15T06:48:48.273Z,47.44
2018-04-15T06:51:16.403Z,48.57
2018-04-15T06:53:44.449Z,48.42
2018-04-15T06:56:12.466Z,49.03
2018-04-15T06:58:40.970Z,45.80
2018-04-15T07:01:08.929Z,43.88
2018-04-15T07:03:36.925Z,43.43
2018-04-15T07:06:04.917Z,44.12
2018-04-15T07:08:32.933Z,43.90
2018-04-15T07:11:00.925Z,45.67
2018-04-15T07:13:29.226Z,46.13
2018-04-15T07:15:57.228Z,45.19
2018-04-15T07:18:25.355Z,46.09
2018-04-15T07:20:53.317Z,46.48
2018-04-15T07:23:21.272Z,45.71
2018-04-15T07:25:49.159Z,45.18
2018-04-15T07:28:17.130Z,46.60
2018-04-15T07:30:45.090Z,45.47
2018-04-15T07:33:13.489Z,44.17
2018-04-15T07:35:41.518Z,44.63
2018-04-15T07:38:09.526Z,42.61
2018-04-15T07:40:37.518Z,43.11
2018-04-15T07:43:05.498Z,42.73
2018-04-15T07:45:33.471Z,42.03
2018-04-15T07:48:01.470Z,42.61
2018-04-15T07:50:29.449Z,42.37
2018-04-15T07:52:57.457Z,42.37
2018-04-15T07:55:25.474Z,42.46
2018-04-15T07:57:53.495Z,42.72
2018-04-15T08:00:21.545Z,43.11
2018-04-15T08:02:49.487Z,43.63
2018-04-15T08:05:17.496Z,43.07
2018-04-15T08:07:45.517Z,43.31
2018-04-15T08:10:13.546Z,43.87
2018-04-15T08:12:41.543Z,44.04
2018-04-15T08:15:09.505Z,43.34
2018-04-15T08:17:37.481Z,42.65
2018-04-15T08:20:05.421Z,42.78
2018-04-15T08:22:33.423Z,43.86
2018-04-15T08:25:01.513Z,43.10
2018-04-15T08:27:29.419Z,43.11
2018-04-15T08:29:57.398Z,42.78
2018-04-15T08:32:25.338Z,42.15
2018-04-15T08:34:53.582Z,41.57
2018-04-15T08:37:21.518Z,41.49
2018-04-15T08:39:49.461Z,39.69
2018-04-15T08:42:17.434Z,39.54
2018-04-15T08:44:45.329Z,40.53
2018-04-15T08:47:13.283Z,40.78
2018-04-15T08:49:41.274Z,40.62
2018-04-15T08:52:09.314Z,39.51
2018-04-15T08:54:37.349Z,40.80
2018-04-15T08:57:05.253Z,40.98
2018-04-15T08:59:33.286Z,41.58
2018-04-15T09:02:01.205Z,40.21
2018-04-15T09:04:29.193Z,41.20
2018-04-15T09:06:57.128Z,41.08
2018-04-15T09:09:25.145Z,40.55
2018-04-15T09:11:53.073Z,42.35
2018-04-15T09:14:21.085Z,42.45
2018-04-15T09:16:49.009Z,40.30
2018-04-15T09:19:16.967Z,39.59
2018-04-15T09:21:44.924Z,37.41
2018-04-15T09:24:12.903Z,37.34
2018-04-15T09:26:40.922Z,35.68
2018-04-15T09:29:08.886Z,35.24
2018-04-15T09:31:36.877Z,35.27
2018-04-15T09:34:04.906Z,36.23
2018-04-15T09:36:33.418Z,37.43
2018-04-15T09:39:01.479Z,36.35
2018-04-15T09:41:29.450Z,35.47
2018-04-15T09:43:57.445Z,35.73
2018-04-15T09:46:25.407Z,36.49
2018-04-15T09:48:53.455Z,37.10
2018-04-15T09:51:21.441Z,37.71
2018-04-15T09:53:49.451Z,37.04
2018-04-15T09:56:17.376Z,36.18
2018-04-15T09:58:45.305Z,37.45
2018-04-15T10:01:17.138Z,37.21
2018-04-15T10:03:45.060Z,37.76
2018-04-15T10:06:13.022Z,36.18
2018-04-15T10:08:41.056Z,37.66
2018-04-15T10:11:09.078Z,37.53
2018-04-15T10:13:37.204Z,38.06
2018-04-15T10:16:05.182Z,38.17
2018-04-15T10:18:33.109Z,37.99
2018-04-15T10:21:01.059Z,38.66
2018-04-15T10:23:29.020Z,38.66
2018-04-15T10:25:57.025Z,38.30
2018-04-15T10:28:25.000Z,37.78
2018-04-15T10:30:53.043Z,37.54
2018-04-15T10:33:20.964Z,37.96
2018-04-15T10:35:48.968Z,37.79
2018-04-15T10:38:17.439Z,38.09
2018-04-15T10:40:45.393Z,39.20
2018-04-15T10:43:13.474Z,39.31
2018-04-15T10:45:41.517Z,37.04
2018-04-15T10:48:09.475Z,35.77
2018-04-15T10:50:37.490Z,34.74
2018-04-15T10:53:05.468Z,33.94
2018-04-15T10:55:33.397Z,33.16
2018-04-15T10:58:01.334Z,34.17
2018-04-15T11:00:29.332Z,32.65
2018-04-15T11:02:57.333Z,30.76
2018-04-15T11:05:25.331Z,31.63
2018-04-15T11:07:53.304Z,31.20
2018-04-15T11:10:21.254Z,32.08
2018-04-15T11:12:49.216Z,30.26
2018-04-15T11:15:17.142Z,30.49
2018-04-15T11:17:45.127Z,29.94
2018-04-15T11:20:13.072Z,31.03
2018-04-15T11:22:41.057Z,30.87
2018-04-15T11:25:09.036Z,30.95
2018-04-15T11:27:37.007Z,31.13
2018-04-15T11:30:05.049Z,31.98
2018-04-15T11:32:33.037Z,32.52
2018-04-15T11:35:01.060Z,32.80
2018-04-15T11:37:28.997Z,32.51
2018-04-15T11:39:57.609Z,31.98
2018-04-15T11:42:25.605Z,32.46
2018-04-15T11:44:53.656Z,31.47
2018-04-15T11:47:21.657Z,31.81
2018-04-15T11:49:49.685Z,30.53
2018-04-15T11:52:17.653Z,29.69
2018-04-15T11:54:45.569Z,30.55
2018-04-15T11:57:13.537Z,32.56
2018-04-15T11:59:41.535Z,32.67
2018-04-15T12:02:09.523Z,31.62
2018-04-15T12:04:37.525Z,33.09
2018-04-15T12:07:05.504Z,31.04
2018-04-15T12:09:33.448Z,30.50
2018-04-15T12:12:01.372Z,31.03
2018-04-15T12:14:29.397Z,30.86
2018-04-15T12:16:57.323Z,30.41
2018-04-15T12:19:25.327Z,31.46
2018-04-15T12:21:53.259Z,31.83
2018-04-15T12:24:21.299Z,32.40
2018-04-15T12:26:49.274Z,31.94
2018-04-15T12:29:17.266Z,30.85
2018-04-15T12:31:45.282Z,32.24
2018-04-15T12:34:13.249Z,32.37
2018-04-15T12:36:41.229Z,32.92
2018-04-15T12:39:09.239Z,32.41
2018-04-15T12:41:37.685Z,31.85
2018-04-15T12:44:05.628Z,32.16
2018-04-15T12:46:33.704Z,32.70
2018-04-15T12:49:01.668Z,31.93
2018-04-15T12:51:29.689Z,31.76
2018-04-15T12:53:57.650Z,32.80
2018-04-15T12:56:25.621Z,31.65
2018-04-15T12:58:53.622Z,31.82
2018-04-15T13:01:21.587Z,32.14
2018-04-15T13:03:49.538Z,31.51
2018-04-15T13:06:17.547Z,31.32
2018-04-15T13:08:45.553Z,31.30
2018-04-15T13:11:13.591Z,30.75
2018-04-15T13:13:41.520Z,31.68
2018-04-15T13:16:09.520Z,29.75
2018-04-15T13:18:37.537Z,29.84
2018-04-15T13:21:05.485Z,30.97
2018-04-15T13:23:33.483Z,30.81
2018-04-15T13:26:01.510Z,32.44
2018-04-15T13:28:29.477Z,31.61
2018-04-15T13:30:57.538Z,31.41
2018-04-15T13:33:25.574Z,31.15
2018-04-15T13:35:53.595Z,30.72
2018-04-15T13:38:21.658Z,30.36
2018-04-15T13:40:49.596Z,31.63
2018-04-15T13:43:17.921Z,31.42
2018-04-15T13:45:45.943Z,31.96
2018-04-15T13:48:13.893Z,31.99
2018-04-15T13:50:41.849Z,29.38
2018-04-15T13:53:09.810Z,30.86
2018-04-15T13:55:37.832Z,31.70
2018-04-15T13:58:05.815Z,30.74
2018-04-15T14:00:33.801Z,31.15
2018-04-15T14:03:01.767Z,31.48
2018-04-15T14:05:29.722Z,33.29
2018-04-15T14:07:57.690Z,32.97
2018-04-15T14:10:25.680Z,32.44
2018-04-15T14:12:53.718Z,31.54
2018-04-15T14:15:21.817Z,31.02
2018-04-15T14:17:49.838Z,31.36
2018-04-15T14:20:17.861Z,31.39
2018-04-15T14:22:45.901Z,32.23
2018-04-15T14:25:13.875Z,32.07
2018-04-15T14:27:41.877Z,31.49
2018-04-15T14:30:09.894Z,31.29
2018-04-15T14:32:37.815Z,31.89
2018-04-15T14:35:05.800Z,31.88
2018-04-15T14:37:33.778Z,32.60
2018-04-15T14:40:01.780Z,32.77
2018-04-15T14:42:29.778Z,33.48
2018-04-15T14:44:58.158Z,32.96
2018-04-15T14:47:26.151Z,32.67
2018-04-15T14:49:54.129Z,32.69
2018-04-15T14:52:22.960Z,32.23
2018-04-15T14:54:50.942Z,32.21
2018-04-15T14:57:18.895Z,33.96
2018-04-15T14:59:46.888Z,34.33
2018-04-15T15:02:14.880Z,34.03
2018-04-15T15:04:42.925Z,33.47
2018-04-15T15:07:10.984Z,33.83
2018-04-15T15:09:39.062Z,34.00
2018-04-15T15:12:07.000Z,34.15
2018-04-15T15:14:35.081Z,33.34
2018-04-15T15:17:03.070Z,33.22
2018-04-15T15:19:31.076Z,33.16
2018-04-15T15:21:59.188Z,32.52
2018-04-15T15:24:27.097Z,32.38
2018-04-15T15:26:55.048Z,33.02
2018-04-15T15:29:23.015Z,32.65
2018-04-15T15:31:51.063Z,33.57
2018-04-15T15:34:19.039Z,34.29
2018-04-15T15:36:47.099Z,34.16
2018-04-15T15:39:15.128Z,33.02
2018-04-15T15:41:43.034Z,32.94
2018-04-15T15:44:10.995Z,33.38
2018-04-15T15:46:39.311Z,33.96
2018-04-15T15:49:07.385Z,35.46
2018-04-15T15:51:35.359Z,33.79
2018-04-15T15:54:03.453Z,33.97
2018-04-15T15:56:31.424Z,34.09
2018-04-15T15:58:59.353Z,34.23
2018-04-15T16:01:27.297Z,34.29
2018-04-15T16:03:55.250Z,35.07
2018-04-15T16:06:23.277Z,33.86
2018-04-15T16:08:51.252Z,33.57
2018-04-15T16:11:19.233Z,34.25
2018-04-15T16:13:47.158Z,35.03
2018-04-15T16:16:15.121Z,34.31
2018-04-15T16:18:43.085Z,36.04
2018-04-15T16:21:11.049Z,36.54
2018-04-15T16:23:39.043Z,37.32
2018-04-15T16:26:07.019Z,37.91
2018-04-15T16:28:35.015Z,38.06
2018-04-15T16:31:03.025Z,38.28
2018-04-15T16:33:31.056Z,38.71
2018-04-15T16:35:59.086Z,39.26
2018-04-15T16:38:27.012Z,39.31
2018-04-15T16:40:55.054Z,42.82
2018-04-15T16:43:23.016Z,43.41
2018-04-15T16:45:50.944Z,42.11
2018-04-15T16:48:19.243Z,42.10
2018-04-15T16:50:47.246Z,43.36
2018-04-15T16:53:15.238Z,43.50
2018-04-15T16:55:43.252Z,42.48
2018-04-15T16:58:11.256Z,42.56
2018-04-15T17:00:39.222Z,42.42
2018-04-15T17:03:07.321Z,42.51
2018-04-15T17:05:35.331Z,43.94
2018-04-15T17:08:03.289Z,43.34
2018-04-15T17:10:31.274Z,43.28
2018-04-15T17:12:59.300Z,43.03
2018-04-15T17:15:27.266Z,43.07
2018-04-15T17:17:55.323Z,43.75
2018-04-15T17:20:23.319Z,43.69
2018-04-15T17:22:51.269Z,42.94
2018-04-15T17:25:19.290Z,43.64
2018-04-15T17:27:47.291Z,44.28
2018-04-15T17:30:15.338Z,45.01
2018-04-15T17:32:43.371Z,42.71
2018-04-15T17:35:11.414Z,44.77
2018-04-15T17:37:39.368Z,42.50
2018-04-15T17:40:07.381Z,44.68
2018-04-15T17:42:35.514Z,43.26
2018-04-15T17:45:03.611Z,42.52
2018-04-15T17:47:32.499Z,41.18
2018-04-15T17:50:00.931Z,39.43
2018-04-15T17:52:29.486Z,39.84
2018-04-15T17:54:57.630Z,41.48
2018-04-15T17:57:26.998Z,41.03
2018-04-15T17:59:55.090Z,41.75
2018-04-15T18:02:23.262Z,40.97
2018-04-15T18:04:51.651Z,41.27
2018-04-15T18:07:19.743Z,41.92
2018-04-15T18:09:47.825Z,42.08
2018-04-15T18:12:15.956Z,41.96
2018-04-15T18:14:44.180Z,42.53
2018-04-15T18:17:12.513Z,41.03
2018-04-15T18:19:40.654Z,41.09
2018-04-15T18:22:08.809Z,41.23
2018-04-15T18:24:37.018Z,42.05
2018-04-15T18:27:05.596Z,42.53
2018-04-15T18:29:33.586Z,42.50
2018-04-15T18:32:01.684Z,41.31
2018-04-15T18:34:29.754Z,41.61
2018-04-15T18:36:57.847Z,42.07
2018-04-15T18:39:25.920Z,41.90
2018-04-15T18:41:53.972Z,41.32
2018-04-15T18:44:22.039Z,41.89
2018-04-15T18:46:50.062Z,41.99
2018-04-15T18:49:18.075Z,41.90
2018-04-15T18:51:46.430Z,42.51
2018-04-15T18:54:14.508Z,42.38
2018-04-15T18:56:42.421Z,42.98
2018-04-15T18:59:10.533Z,42.39
2018-04-15T19:01:38.641Z,41.80
2018-04-15T19:04:06.692Z,41.71
2018-04-15T19:06:34.724Z,42.37
2018-04-15T19:09:02.864Z,40.99
2018-04-15T19:11:30.986Z,41.40
2018-04-15T19:13:58.991Z,42.80
2018-04-15T19:16:26.922Z,42.06
2018-04-15T19:18:54.934Z,41.83
2018-04-15T19:21:22.956Z,41.84
2018-04-15T19:23:51.054Z,41.51
2018-04-15T19:26:19.131Z,40.93
2018-04-15T19:28:47.119Z,41.15
2018-04-15T19:31:15.276Z,40.31
2018-04-15T19:33:43.243Z,41.44
2018-04-15T19:36:11.323Z,41.26
2018-04-15T19:38:39.354Z,40.77
2018-04-15T19:41:07.413Z,40.99
2018-04-15T19:43:35.522Z,41.78
2018-04-15T19:46:03.595Z,39.88
2018-04-15T19:48:31.676Z,40.45
2018-04-15T19:50:59.789Z,39.81
2018-04-15T19:53:28.254Z,40.08
2018-04-15T19:55:56.341Z,42.04
2018-04-15T19:58:24.400Z,40.46
2018-04-15T20:00:52.380Z,41.11
2018-04-15T20:03:20.411Z,41.25
2018-04-15T20:05:48.579Z,41.33
2018-04-15T20:08:16.593Z,42.40
2018-04-15T20:10:44.692Z,41.82
2018-04-15T20:13:12.766Z,43.51
2018-04-15T20:15:40.811Z,42.40
2018-04-15T20:18:09.024Z,40.19
2018-04-15T20:20:37.138Z,42.80
2018-04-15T20:23:05.242Z,41.81
2018-04-15T20:25:33.373Z,44.02
2018-04-15T20:28:01.481Z,42.45
2018-04-15T20:30:29.580Z,44.24
2018-04-15T20:32:57.619Z,44.82
2018-04-15T20:35:25.655Z,43.19
2018-04-15T20:37:53.681Z,39.54
2018-04-15T20:40:21.734Z,41.66
2018-04-15T20:42:49.815Z,41.53
2018-04-15T20:45:17.876Z,41.51
2018-04-15T20:47:45.958Z,41.68
2018-04-15T20:50:13.999Z,41.49
2018-04-15T20:52:42.030Z,41.88
2018-04-15T20:55:10.498Z,42.85
2018-04-15T20:57:38.518Z,43.75
2018-04-15T21:00:06.616Z,42.31
2018-04-15T21:02:34.546Z,40.94
2018-04-15T21:05:02.620Z,41.21
2018-04-15T21:07:30.707Z,42.25
2018-04-15T21:09:58.892Z,41.96
2018-04-15T21:12:26.959Z,41.16
2018-04-15T21:14:54.946Z,42.92
2018-04-15T21:17:22.989Z,41.61
2018-04-15T21:19:51.016Z,42.22
2018-04-15T21:22:19.034Z,40.40
2018-04-15T21:24:47.054Z,42.47
2018-04-15T21:27:15.094Z,43.23
2018-04-15T21:29:43.077Z,42.93
2018-04-15T21:32:11.108Z,43.64
2018-04-15T21:34:38.989Z,42.21
2018-04-15T21:37:07.170Z,46.10
2018-04-15T21:39:35.237Z,43.48
2018-04-15T21:42:03.304Z,44.27
2018-04-15T21:44:31.327Z,45.16
2018-04-15T21:46:59.367Z,43.82
2018-04-15T21:49:27.372Z,43.31
2018-04-15T21:51:55.402Z,42.38
2018-04-15T21:54:23.555Z,42.30
2018-04-15T21:56:51.710Z,43.19
2018-04-15T21:59:19.722Z,42.25
2018-04-15T22:01:47.750Z,42.12
2018-04-15T22:04:15.701Z,42.29
2018-04-15T22:06:43.652Z,42.20
2018-04-15T22:09:11.538Z,42.13
2018-04-15T22:11:51.285Z,42.10
2018-04-15T22:14:20.314Z,42.00
2018-04-15T22:16:48.304Z,42.19
2018-04-15T22:19:16.304Z,42.33
2018-04-15T22:21:44.301Z,42.68
2018-04-15T22:24:12.319Z,42.54
2018-04-15T22:26:40.522Z,43.22
2018-04-15T22:29:08.485Z,43.48
2018-04-15T22:31:36.397Z,43.66
2018-04-15T22:34:04.381Z,43.44
2018-04-15T22:36:32.351Z,43.13
2018-04-15T22:39:00.347Z,43.54
2018-04-15T22:41:28.298Z,43.43
2018-04-15T22:43:56.285Z,43.80
2018-04-15T22:46:24.304Z,44.36
2018-04-15T22:48:57.281Z,43.61
2018-04-15T22:51:25.266Z,44.50
2018-04-15T22:53:53.318Z,43.63
2018-04-15T22:56:21.334Z,44.19
2018-04-15T22:58:49.701Z,45.02
2018-04-15T23:01:17.641Z,44.69
2018-04-15T23:03:45.645Z,44.54
2018-04-15T23:06:13.634Z,44.77
2018-04-15T23:08:41.590Z,44.72
2018-04-15T23:11:09.674Z,45.78
2018-04-15T23:13:37.619Z,46.39
2018-04-15T23:16:05.583Z,46.86
2018-04-15T23:18:33.611Z,45.93
2018-04-15T23:21:01.664Z,45.45
2018-04-15T23:23:29.592Z,44.27
2018-04-15T23:25:57.499Z,43.82
2018-04-15T23:28:25.458Z,44.17
2018-04-15T23:30:53.438Z,44.01
2018-04-15T23:33:21.443Z,44.92
2018-04-15T23:35:49.410Z,44.58
2018-04-15T23:38:17.313Z,44.84
2018-04-15T23:40:45.265Z,45.31
2018-04-15T23:43:13.222Z,44.71
2018-04-15T23:45:41.231Z,44.57
2018-04-15T23:48:09.233Z,44.46
2018-04-15T23:50:37.221Z,47.28
2018-04-15T23:53:05.161Z,46.37
2018-04-15T23:55:33.180Z,45.57
2018-04-15T23:58:01.210Z,45.16
